Quincy, Massachusetts
Current Conditions -  °F | °C
As of 2:54 AM on Thursday 27 Nov 2014 (Local Time) from KBOS Reporting Station
Light Snow Light Snow  
Wind Chill: 22°   Ceiling: 1500
Heat Index: 33°   Visibility: 2mi
Dew Point: 31°   Wind: 18mph
Humidity: 92%   Direction: 330°NNW
Pressure: 29.74"   Gusts: 24mph
Location:  42.25°N, 71°W
Report Text: KBOS 270754Z 33016G21KT 2SM -SN BR SCT008 BKN015 OVC022 01/M01 A2974 RMK AO2 SLP071 P0000 T00061006 $
Loading
Personal Weather Stations






























Interactive Weather Map New forecast layout! Learn more

10-Day Weather Forecast

Advertisements
Track Severe Weather on mobile